createdAt,value
2018-11-01T00:00:28.551Z,996.98
2018-11-01T00:01:28.546Z,997.00
2018-11-01T00:02:28.538Z,996.99
2018-11-01T00:03:28.517Z,996.98
2018-11-01T00:04:28.521Z,996.99
2018-11-01T00:05:28.514Z,996.98
2018-11-01T00:06:28.491Z,996.97
2018-11-01T00:07:28.474Z,996.92
2018-11-01T00:08:28.480Z,996.98
2018-11-01T00:09:28.470Z,997.00
2018-11-01T00:10:28.450Z,996.99
2018-11-01T00:11:28.430Z,996.98
2018-11-01T00:12:28.420Z,997.03
2018-11-01T00:13:28.412Z,997.08
2018-11-01T00:14:28.393Z,997.07
2018-11-01T00:15:28.424Z,997.12
2018-11-01T00:16:28.386Z,997.05
2018-11-01T00:17:28.370Z,997.03
2018-11-01T00:18:28.366Z,997.05
2018-11-01T00:19:28.358Z,997.03
2018-11-01T00:20:28.343Z,997.02
2018-11-01T00:21:28.338Z,997.03
2018-11-01T00:22:28.314Z,996.99
2018-11-01T00:23:28.308Z,997.00
2018-11-01T00:24:28.298Z,997.04
2018-11-01T00:25:28.288Z,996.96
2018-11-01T00:26:28.273Z,996.93
2018-11-01T00:27:28.268Z,996.97
2018-11-01T00:28:28.274Z,996.92
2018-11-01T00:29:28.234Z,996.94
2018-11-01T00:30:28.231Z,996.94
2018-11-01T00:31:28.226Z,996.99
2018-11-01T00:32:28.208Z,996.92
2018-11-01T00:33:28.213Z,996.96
2018-11-01T00:34:28.180Z,997.05
2018-11-01T00:35:28.176Z,997.01
2018-11-01T00:36:28.176Z,997.08
2018-11-01T00:37:28.147Z,997.07
2018-11-01T00:38:28.173Z,997.06
2018-11-01T00:39:28.136Z,997.07
2018-11-01T00:40:28.119Z,997.06
2018-11-01T00:41:28.127Z,997.05
2018-11-01T00:42:28.099Z,997.01
2018-11-01T00:43:28.089Z,997.11
2018-11-01T00:44:28.089Z,997.04
2018-11-01T00:45:28.069Z,997.10
2018-11-01T00:46:28.049Z,997.08
2018-11-01T00:47:28.070Z,997.04
2018-11-01T00:48:28.029Z,997.07
2018-11-01T00:49:28.018Z,997.00
2018-11-01T00:50:28.014Z,997.06
2018-11-01T00:51:28.014Z,997.09
2018-11-01T00:52:27.990Z,997.15
2018-11-01T00:53:27.998Z,997.15
2018-11-01T00:54:27.964Z,997.16
2018-11-01T00:55:27.954Z,997.12
2018-11-01T00:56:27.944Z,997.09
2018-11-01T00:57:27.948Z,997.10
2018-11-01T00:58:27.928Z,997.09
2018-11-01T00:59:27.927Z,997.08
2018-11-01T01:00:27.903Z,997.15
2018-11-01T01:01:27.909Z,997.13
2018-11-01T01:02:27.885Z,997.17
2018-11-01T01:03:27.891Z,997.19
2018-11-01T01:04:27.862Z,997.19
2018-11-01T01:05:27.860Z,997.23
2018-11-01T01:06:27.851Z,997.19
2018-11-01T01:07:27.827Z,997.17
2018-11-01T01:08:27.817Z,997.08
2018-11-01T01:09:27.813Z,997.10
2018-11-01T01:10:27.802Z,997.07
2018-11-01T01:11:27.788Z,997.16
2018-11-01T01:12:27.789Z,997.12
2018-11-01T01:13:27.782Z,997.07
2018-11-01T01:14:27.756Z,997.04
2018-11-01T01:15:27.740Z,997.04
2018-11-01T01:16:27.732Z,997.00
2018-11-01T01:17:27.735Z,997.01
2018-11-01T01:18:27.711Z,997.02
2018-11-01T01:19:27.725Z,997.04
2018-11-01T01:20:27.686Z,997.06
2018-11-01T01:21:27.681Z,997.08
2018-11-01T01:22:27.673Z,997.10
2018-11-01T01:23:27.657Z,997.09
2018-11-01T01:24:27.678Z,997.10
2018-11-01T01:25:27.729Z,997.08
2018-11-01T01:26:27.632Z,997.01
2018-11-01T01:27:27.621Z,997.00
2018-11-01T01:28:27.606Z,996.99
2018-11-01T01:29:27.600Z,997.01
2018-11-01T01:30:27.602Z,997.03
2018-11-01T01:31:27.572Z,997.07
2018-11-01T01:32:27.565Z,997.06
2018-11-01T01:33:27.559Z,997.02
2018-11-01T01:34:27.605Z,997.02
2018-11-01T01:35:27.533Z,996.99
2018-11-01T01:36:27.529Z,996.98
2018-11-01T01:37:27.512Z,997.00
2018-11-01T01:38:27.502Z,997.01
2018-11-01T01:39:27.535Z,996.97
2018-11-01T01:40:27.503Z,997.08
2018-11-01T01:41:27.473Z,997.01
2018-11-01T01:42:27.462Z,997.00
2018-11-01T01:43:27.446Z,996.95
2018-11-01T01:44:27.433Z,996.90
2018-11-01T01:45:27.449Z,996.92
2018-11-01T01:46:27.436Z,996.92
2018-11-01T01:47:27.403Z,996.88
2018-11-01T01:48:27.394Z,996.83
2018-11-01T01:49:27.415Z,996.82
2018-11-01T01:50:27.370Z,996.84
2018-11-01T01:51:27.367Z,996.78
2018-11-01T01:52:27.350Z,996.80
2018-11-01T01:53:27.343Z,996.78
2018-11-01T01:54:27.333Z,996.81
2018-11-01T01:55:27.317Z,996.83
2018-11-01T01:56:27.321Z,996.82
2018-11-01T01:57:27.316Z,996.83
2018-11-01T01:58:27.276Z,996.83
2018-11-01T01:59:27.269Z,996.75
2018-11-01T02:00:27.284Z,996.74
2018-11-01T02:01:27.258Z,996.78
2018-11-01T02:02:27.242Z,996.76
2018-11-01T02:03:27.230Z,996.76
2018-11-01T02:04:27.215Z,996.75
2018-11-01T02:05:27.202Z,996.77
2018-11-01T02:06:27.212Z,996.76
2018-11-01T02:07:27.194Z,996.74
2018-11-01T02:08:27.175Z,996.75
2018-11-01T02:09:27.172Z,996.73
2018-11-01T02:10:27.154Z,996.77
2018-11-01T02:11:27.226Z,996.74
2018-11-01T02:12:27.141Z,996.76
2018-11-01T02:13:27.140Z,996.79
2018-11-01T02:14:27.120Z,996.78
2018-11-01T02:15:27.100Z,996.79
2018-11-01T02:16:27.132Z,996.78
2018-11-01T02:17:27.096Z,996.79
2018-11-01T02:18:27.063Z,996.72
2018-11-01T02:19:27.110Z,996.76
2018-11-01T02:20:27.067Z,996.77
2018-11-01T02:21:27.039Z,996.74
2018-11-01T02:22:27.035Z,996.72
2018-11-01T02:23:27.017Z,996.74
2018-11-01T02:24:27.002Z,996.77
2018-11-01T02:25:26.990Z,996.80
2018-11-01T02:26:26.987Z,996.74
2018-11-01T02:27:26.974Z,996.74
2018-11-01T02:28:26.980Z,996.69
2018-11-01T02:29:26.955Z,996.71
2018-11-01T02:30:26.936Z,996.72
2018-11-01T02:31:27.001Z,996.78
2018-11-01T02:32:26.930Z,996.74
2018-11-01T02:33:26.938Z,996.74
2018-11-01T02:34:26.921Z,996.67
2018-11-01T02:35:26.891Z,996.70
2018-11-01T02:36:26.874Z,996.71
2018-11-01T02:37:26.898Z,996.75
2018-11-01T02:38:26.987Z,996.78
2018-11-01T02:39:26.844Z,996.82
2018-11-01T02:40:26.847Z,996.72
2018-11-01T02:41:26.826Z,996.73
2018-11-01T02:42:26.808Z,996.67
2018-11-01T02:43:26.826Z,996.71
2018-11-01T02:44:26.792Z,996.67
2018-11-01T02:45:26.776Z,996.72
2018-11-01T02:46:26.786Z,996.70
2018-11-01T02:47:26.762Z,996.74
2018-11-01T02:48:26.753Z,996.78
2018-11-01T02:49:26.747Z,996.78
2018-11-01T02:50:26.721Z,996.80
2018-11-01T02:51:26.714Z,996.79
2018-11-01T02:52:26.716Z,996.77
2018-11-01T02:53:26.710Z,996.76
2018-11-01T02:54:26.675Z,996.76
2018-11-01T02:55:26.679Z,996.74
2018-11-01T02:56:26.673Z,996.76
2018-11-01T02:57:26.646Z,996.76
2018-11-01T02:58:26.646Z,996.75
2018-11-01T02:59:26.650Z,996.78
2018-11-01T03:00:26.618Z,996.78
2018-11-01T03:01:26.636Z,996.76
2018-11-01T03:02:26.595Z,996.78
2018-11-01T03:03:26.622Z,996.72
2018-11-01T03:04:26.573Z,996.68
2018-11-01T03:05:26.560Z,996.65
2018-11-01T03:06:26.576Z,996.67
2018-11-01T03:07:26.545Z,996.64
2018-11-01T03:08:26.531Z,996.68
2018-11-01T03:09:26.542Z,996.67
2018-11-01T03:10:26.522Z,996.67
2018-11-01T03:11:26.503Z,996.64
2018-11-01T03:12:26.503Z,996.64
2018-11-01T03:13:26.482Z,996.69
2018-11-01T03:14:26.463Z,996.72
2018-11-01T03:15:26.454Z,996.74
2018-11-01T03:16:26.453Z,996.71
2018-11-01T03:17:26.453Z,996.68
2018-11-01T03:18:26.440Z,996.70
2018-11-01T03:19:26.423Z,996.62
2018-11-01T03:20:26.403Z,996.65
2018-11-01T03:21:26.464Z,996.64
2018-11-01T03:22:26.382Z,996.59
2018-11-01T03:23:26.395Z,996.61
2018-11-01T03:24:26.368Z,996.55
2018-11-01T03:25:26.361Z,996.53
2018-11-01T03:26:26.392Z,996.48
2018-11-01T03:27:26.349Z,996.50
2018-11-01T03:28:26.320Z,996.46
2018-11-01T03:29:26.323Z,996.44
2018-11-01T03:30:26.309Z,996.43
2018-11-01T03:31:26.295Z,996.41
2018-11-01T03:32:26.299Z,996.39
2018-11-01T03:33:26.284Z,996.34
2018-11-01T03:34:26.248Z,996.29
2018-11-01T03:35:26.240Z,996.22
2018-11-01T03:36:26.234Z,996.15
2018-11-01T03:37:26.216Z,996.17
2018-11-01T03:38:26.371Z,996.15
2018-11-01T03:39:26.229Z,996.13
2018-11-01T03:40:26.203Z,996.05
2018-11-01T03:41:26.178Z,996.07
2018-11-01T03:42:26.175Z,996.02
2018-11-01T03:43:26.175Z,996.00
2018-11-01T03:44:26.146Z,995.99
2018-11-01T03:45:26.202Z,996.00
2018-11-01T03:46:26.122Z,995.95
2018-11-01T03:47:26.111Z,995.95
2018-11-01T03:48:26.105Z,995.94
2018-11-01T03:49:26.100Z,995.93
2018-11-01T03:50:26.085Z,995.96
2018-11-01T03:51:26.084Z,995.90
2018-11-01T03:52:26.070Z,995.97
2018-11-01T03:53:26.111Z,995.90
2018-11-01T03:54:26.053Z,995.95
2018-11-01T03:55:26.027Z,995.95
2018-11-01T03:56:26.016Z,996.03
2018-11-01T03:57:26.018Z,995.94
2018-11-01T03:58:25.994Z,996.05
2018-11-01T03:59:25.985Z,996.11
2018-11-01T04:00:25.983Z,996.11
2018-11-01T04:01:25.958Z,996.16
2018-11-01T04:02:25.978Z,996.15
2018-11-01T04:03:25.950Z,996.16
2018-11-01T04:04:25.934Z,996.14
2018-11-01T04:05:25.937Z,996.20
2018-11-01T04:06:25.906Z,996.24
2018-11-01T04:07:25.893Z,996.28
2018-11-01T04:08:25.884Z,996.28
2018-11-01T04:09:25.891Z,996.29
2018-11-01T04:10:25.871Z,996.29
2018-11-01T04:11:25.889Z,996.31
2018-11-01T04:12:25.869Z,996.32
2018-11-01T04:13:25.874Z,996.30
2018-11-01T04:14:25.825Z,996.31
2018-11-01T04:15:25.856Z,996.40
2018-11-01T04:16:25.811Z,996.39
2018-11-01T04:17:25.814Z,996.44
2018-11-01T04:18:25.779Z,996.48
2018-11-01T04:19:25.766Z,996.46
2018-11-01T04:20:25.760Z,996.45
2018-11-01T04:21:25.752Z,996.48
2018-11-01T04:22:25.748Z,996.53
2018-11-01T04:23:25.987Z,996.56
2018-11-01T04:24:25.722Z,996.55
2018-11-01T04:25:25.729Z,996.58
2018-11-01T04:26:25.694Z,996.58
2018-11-01T04:27:25.684Z,996.56
2018-11-01T04:28:25.688Z,996.61
2018-11-01T04:29:25.683Z,996.56
2018-11-01T04:30:25.655Z,996.51
2018-11-01T04:31:25.660Z,996.46
2018-11-01T04:32:25.634Z,996.44
2018-11-01T04:33:25.812Z,996.37
2018-11-01T04:34:25.613Z,996.35
2018-11-01T04:35:25.646Z,996.30
2018-11-01T04:36:25.649Z,996.20
2018-11-01T04:37:25.583Z,996.19
2018-11-01T04:38:25.593Z,996.22
2018-11-01T04:39:25.552Z,996.16
2018-11-01T04:40:25.551Z,996.09
2018-11-01T04:41:25.533Z,996.10
2018-11-01T04:42:25.530Z,996.12
2018-11-01T04:43:25.527Z,996.09
2018-11-01T04:44:25.516Z,996.12
2018-11-01T04:45:25.496Z,996.16
2018-11-01T04:46:25.502Z,996.15
2018-11-01T04:47:25.516Z,996.11
2018-11-01T04:48:25.485Z,996.10
2018-11-01T04:49:25.467Z,996.12
2018-11-01T04:50:25.451Z,996.13
2018-11-01T04:51:25.427Z,996.12
2018-11-01T04:52:25.421Z,996.13
2018-11-01T04:53:25.406Z,996.12
2018-11-01T04:54:25.399Z,996.14
2018-11-01T04:55:25.400Z,996.18
2018-11-01T04:56:25.388Z,996.18
2018-11-01T04:57:25.366Z,996.17
2018-11-01T04:58:25.358Z,996.15
2018-11-01T04:59:25.343Z,996.11
2018-11-01T05:00:25.349Z,996.08
2018-11-01T05:01:25.335Z,996.13
2018-11-01T05:02:25.314Z,996.09
2018-11-01T05:03:25.335Z,996.14
2018-11-01T05:04:25.294Z,996.07
2018-11-01T05:05:25.286Z,996.13
2018-11-01T05:06:25.271Z,996.13
2018-11-01T05:07:25.305Z,996.21
2018-11-01T05:08:25.251Z,996.18
2018-11-01T05:09:25.244Z,996.22
2018-11-01T05:10:25.233Z,996.18
2018-11-01T05:11:25.257Z,996.20
2018-11-01T05:12:25.205Z,996.19
2018-11-01T05:13:25.207Z,996.14
2018-11-01T05:14:25.193Z,996.13
2018-11-01T05:15:25.346Z,996.06
2018-11-01T05:16:25.157Z,996.04
2018-11-01T05:17:25.153Z,995.98
2018-11-01T05:18:25.155Z,995.89
2018-11-01T05:19:25.138Z,995.91
2018-11-01T05:20:25.214Z,995.88
2018-11-01T05:21:25.122Z,995.93
2018-11-01T05:22:25.101Z,995.94
2018-11-01T05:23:25.096Z,995.94
2018-11-01T05:24:25.107Z,995.90
2018-11-01T05:25:25.068Z,995.86
2018-11-01T05:26:25.075Z,995.82
2018-11-01T05:27:25.075Z,995.78
2018-11-01T05:28:25.056Z,995.80
2018-11-01T05:29:25.129Z,995.79
2018-11-01T05:30:25.020Z,995.83
2018-11-01T05:31:25.000Z,995.82
2018-11-01T05:32:25.029Z,995.85
2018-11-01T05:33:24.992Z,995.87
2018-11-01T05:34:25.005Z,995.90
2018-11-01T05:35:24.964Z,995.87
2018-11-01T05:36:24.946Z,995.87
2018-11-01T05:37:24.950Z,995.90
2018-11-01T05:38:24.927Z,995.89
2018-11-01T05:39:24.920Z,995.89
2018-11-01T05:40:24.919Z,995.86
2018-11-01T05:41:24.906Z,995.85
2018-11-01T05:42:24.886Z,995.87
2018-11-01T05:43:24.868Z,995.87
2018-11-01T05:44:24.864Z,995.84
2018-11-01T05:45:24.854Z,995.86
2018-11-01T05:46:24.854Z,995.90
2018-11-01T05:47:24.838Z,995.93
2018-11-01T05:48:24.831Z,995.92
2018-11-01T05:49:24.806Z,995.92
2018-11-01T05:50:24.809Z,995.90
2018-11-01T05:51:24.815Z,995.92
2018-11-01T05:52:24.779Z,995.94
2018-11-01T05:53:24.767Z,995.92
2018-11-01T05:54:24.754Z,995.91
2018-11-01T05:55:24.750Z,995.92
2018-11-01T05:56:24.732Z,995.90
2018-11-01T05:57:24.737Z,995.94
2018-11-01T05:58:24.713Z,995.98
2018-11-01T05:59:24.704Z,996.01
2018-11-01T06:00:24.705Z,996.01
2018-11-01T06:01:24.703Z,996.04
2018-11-01T06:02:24.670Z,996.07
2018-11-01T06:03:24.654Z,996.10
2018-11-01T06:04:24.660Z,996.17
2018-11-01T06:05:24.668Z,996.18
2018-11-01T06:06:24.639Z,996.20
2018-11-01T06:07:24.621Z,996.22
2018-11-01T06:08:24.602Z,996.21
2018-11-01T06:09:24.601Z,996.26
2018-11-01T06:10:24.594Z,996.24
2018-11-01T06:11:24.595Z,996.23
2018-11-01T06:12:24.852Z,996.24
2018-11-01T06:13:24.570Z,996.22
2018-11-01T06:14:24.541Z,996.17
2018-11-01T06:15:24.529Z,996.15
2018-11-01T06:16:24.513Z,996.13
2018-11-01T06:17:24.519Z,996.14
2018-11-01T06:18:24.500Z,996.18
2018-11-01T06:19:24.492Z,996.18
2018-11-01T06:20:24.513Z,996.15
2018-11-01T06:21:24.468Z,996.21
2018-11-01T06:22:24.466Z,996.22
2018-11-01T06:23:24.448Z,996.20
2018-11-01T06:24:24.437Z,996.21
2018-11-01T06:25:24.425Z,996.27
2018-11-01T06:26:24.425Z,996.40
2018-11-01T06:27:24.430Z,996.44
2018-11-01T06:28:24.385Z,996.45
2018-11-01T06:29:24.376Z,996.40
2018-11-01T06:30:24.451Z,996.42
2018-11-01T06:31:24.361Z,996.40
2018-11-01T06:32:24.363Z,996.39
2018-11-01T06:33:24.351Z,996.37
2018-11-01T06:34:24.322Z,996.37
2018-11-01T06:35:24.309Z,996.31
2018-11-01T06:36:24.311Z,996.34
2018-11-01T06:37:24.313Z,996.33
2018-11-01T06:38:24.284Z,996.29
2018-11-01T06:39:24.270Z,996.31
2018-11-01T06:40:24.257Z,996.25
2018-11-01T06:41:24.248Z,996.21
2018-11-01T06:42:24.241Z,996.22
2018-11-01T06:43:24.260Z,996.20
2018-11-01T06:44:24.275Z,996.14
2018-11-01T06:45:24.213Z,996.11
2018-11-01T06:46:24.195Z,996.07
2018-11-01T06:47:24.192Z,996.08
2018-11-01T06:48:24.199Z,996.04
2018-11-01T06:49:24.165Z,996.07
2018-11-01T06:50:24.157Z,996.09
2018-11-01T06:51:24.147Z,996.09
2018-11-01T06:52:24.172Z,996.11
2018-11-01T06:53:24.172Z,996.16
2018-11-01T06:54:24.113Z,996.13
2018-11-01T06:55:24.107Z,996.14
2018-11-01T06:56:24.094Z,996.16
2018-11-01T06:57:24.080Z,996.12
2018-11-01T06:58:24.176Z,996.15
2018-11-01T06:59:24.281Z,996.14
2018-11-01T07:00:24.048Z,996.14
2018-11-01T07:01:24.034Z,996.19
2018-11-01T07:02:24.028Z,996.14
2018-11-01T07:03:24.018Z,996.13
2018-11-01T07:04:24.029Z,996.13
2018-11-01T07:05:24.065Z,996.13
2018-11-01T07:06:23.994Z,996.20
2018-11-01T07:07:23.980Z,996.16
2018-11-01T07:08:23.971Z,996.17
2018-11-01T07:09:23.955Z,996.15
2018-11-01T07:10:23.952Z,996.08
2018-11-01T07:11:23.970Z,996.09
2018-11-01T07:12:23.916Z,996.14
2018-11-01T07:13:23.916Z,996.14
2018-11-01T07:14:23.909Z,996.15
2018-11-01T07:15:23.889Z,996.15
2018-11-01T07:16:23.918Z,996.10
2018-11-01T07:17:24.088Z,996.10
2018-11-01T07:18:23.861Z,996.10
2018-11-01T07:19:23.847Z,996.15
2018-11-01T07:20:23.832Z,996.07
2018-11-01T07:21:23.820Z,996.06
2018-11-01T07:22:23.814Z,996.04
2018-11-01T07:23:23.820Z,996.05
2018-11-01T07:24:23.793Z,996.07
2018-11-01T07:25:23.942Z,996.01
2018-11-01T07:26:23.853Z,995.96
2018-11-01T07:27:23.765Z,995.98
2018-11-01T07:28:23.755Z,995.95
2018-11-01T07:29:23.771Z,995.96
2018-11-01T07:30:23.750Z,995.93
2018-11-01T07:31:23.711Z,995.96
2018-11-01T07:32:23.704Z,995.92
2018-11-01T07:33:23.703Z,995.91
2018-11-01T07:34:23.715Z,995.93
2018-11-01T07:35:23.692Z,995.85
2018-11-01T07:36:23.695Z,995.83
2018-11-01T07:37:23.653Z,995.80
2018-11-01T07:38:23.652Z,995.75
2018-11-01T07:39:23.630Z,995.72
2018-11-01T07:40:23.624Z,995.72
2018-11-01T07:41:23.626Z,995.72
2018-11-01T07:42:23.597Z,995.66
2018-11-01T07:43:23.589Z,995.66
2018-11-01T07:44:23.579Z,995.68
2018-11-01T07:45:23.594Z,995.72
2018-11-01T07:46:23.558Z,995.72
2018-11-01T07:47:23.555Z,995.74
2018-11-01T07:48:23.563Z,995.81
2018-11-01T07:49:23.528Z,995.79
2018-11-01T07:50:23.516Z,995.78
2018-11-01T07:51:23.547Z,995.79
2018-11-01T07:52:23.502Z,995.77
2018-11-01T07:53:23.487Z,995.83
2018-11-01T07:54:23.473Z,995.81
2018-11-01T07:55:23.462Z,995.80
2018-11-01T07:56:23.452Z,995.79
2018-11-01T07:57:23.461Z,995.82
2018-11-01T07:58:23.454Z,995.80
2018-11-01T07:59:23.425Z,995.82
2018-11-01T08:00:23.411Z,995.83
2018-11-01T08:01:23.406Z,995.83
2018-11-01T08:02:23.414Z,995.82
2018-11-01T08:03:23.381Z,995.85
2018-11-01T08:04:23.357Z,995.88
2018-11-01T08:05:23.353Z,995.80
2018-11-01T08:06:23.365Z,995.85
2018-11-01T08:07:23.342Z,995.84
2018-11-01T08:08:23.322Z,995.74
2018-11-01T08:09:23.320Z,995.73
2018-11-01T08:10:23.299Z,995.64
2018-11-01T08:11:23.298Z,995.66
2018-11-01T08:12:23.335Z,995.60
2018-11-01T08:13:23.266Z,995.62
2018-11-01T08:14:23.317Z,995.57
2018-11-01T08:15:23.291Z,995.60
2018-11-01T08:16:23.256Z,995.59
2018-11-01T08:17:23.237Z,995.57
2018-11-01T08:18:23.213Z,995.59
2018-11-01T08:19:23.224Z,995.61
2018-11-01T08:20:23.503Z,995.61
2018-11-01T08:21:23.193Z,995.63
2018-11-01T08:22:23.181Z,995.62
2018-11-01T08:23:23.155Z,995.60
2018-11-01T08:24:23.166Z,995.58
2018-11-01T08:25:23.130Z,995.58
2018-11-01T08:26:23.128Z,995.61
2018-11-01T08:27:23.115Z,995.61
2018-11-01T08:28:23.102Z,995.65
2018-11-01T08:29:23.090Z,995.67
2018-11-01T08:30:23.102Z,995.71
2018-11-01T08:31:23.079Z,995.70
2018-11-01T08:32:23.060Z,995.71
2018-11-01T08:33:23.052Z,995.68
2018-11-01T08:34:23.035Z,995.69
2018-11-01T08:35:23.037Z,995.67
2018-11-01T08:36:23.014Z,995.67
2018-11-01T08:37:23.025Z,995.70
2018-11-01T08:38:23.005Z,995.69
2018-11-01T08:39:23.062Z,995.70
2018-11-01T08:40:22.973Z,995.74
2018-11-01T08:41:22.965Z,995.73
2018-11-01T08:42:22.959Z,995.73
2018-11-01T08:43:22.957Z,995.74
2018-11-01T08:44:22.932Z,995.72
2018-11-01T08:45:22.923Z,995.63
2018-11-01T08:46:22.904Z,995.67
2018-11-01T08:47:22.907Z,995.61
2018-11-01T08:48:22.920Z,995.61
2018-11-01T08:49:22.965Z,995.64
2018-11-01T08:50:22.868Z,995.63
2018-11-01T08:51:22.857Z,995.63
2018-11-01T08:52:22.845Z,995.61
2018-11-01T08:53:22.836Z,995.65
2018-11-01T08:54:22.863Z,995.60
2018-11-01T08:55:22.843Z,995.66
2018-11-01T08:56:22.798Z,995.62
2018-11-01T08:57:22.787Z,995.58
2018-11-01T08:58:22.810Z,995.60
2018-11-01T08:59:22.784Z,995.60
2018-11-01T09:00:22.754Z,995.56
2018-11-01T09:01:22.801Z,995.53
2018-11-01T09:02:22.741Z,995.57
2018-11-01T09:03:22.742Z,995.54
2018-11-01T09:04:22.832Z,995.61
2018-11-01T09:05:22.706Z,995.59
2018-11-01T09:06:22.686Z,995.58
2018-11-01T09:07:22.737Z,995.60
2018-11-01T09:08:22.667Z,995.58
2018-11-01T09:09:22.662Z,995.55
2018-11-01T09:10:22.706Z,995.56
2018-11-01T09:11:22.641Z,995.54
2018-11-01T09:12:22.627Z,995.47
2018-11-01T09:13:22.695Z,995.45
2018-11-01T09:14:22.670Z,995.49
2018-11-01T09:15:22.622Z,995.46
2018-11-01T09:16:22.587Z,995.51
2018-11-01T09:17:22.576Z,995.50
2018-11-01T09:18:22.570Z,995.53
2018-11-01T09:19:22.666Z,995.56
2018-11-01T09:20:22.543Z,995.55
2018-11-01T09:21:22.552Z,995.56
2018-11-01T09:22:22.523Z,995.57
2018-11-01T09:23:22.509Z,995.57
2018-11-01T09:24:22.531Z,995.53
2018-11-01T09:25:22.510Z,995.61
2018-11-01T09:26:22.474Z,995.73
2018-11-01T09:27:22.475Z,995.76
2018-11-01T09:28:22.457Z,995.81
2018-11-01T09:29:22.438Z,995.81
2018-11-01T09:30:22.440Z,995.88
2018-11-01T09:31:22.437Z,995.91
2018-11-01T09:32:22.413Z,995.90
2018-11-01T09:33:22.426Z,995.84
2018-11-01T09:34:22.417Z,995.83
2018-11-01T09:35:22.379Z,995.85
2018-11-01T09:36:22.369Z,995.87
2018-11-01T09:37:22.385Z,995.88
2018-11-01T09:38:22.342Z,995.91
2018-11-01T09:39:22.364Z,995.85
2018-11-01T09:40:22.335Z,995.84
2018-11-01T09:41:22.315Z,995.87
2018-11-01T09:42:22.309Z,995.87
2018-11-01T09:43:22.294Z,995.86
2018-11-01T09:44:22.283Z,995.89
2018-11-01T09:45:22.307Z,995.93
2018-11-01T09:46:22.408Z,995.89
2018-11-01T09:47:22.625Z,995.88
2018-11-01T09:48:22.242Z,995.93
2018-11-01T09:49:22.234Z,995.97
2018-11-01T09:50:22.216Z,995.95
2018-11-01T09:51:22.247Z,995.94
2018-11-01T09:52:22.207Z,995.93
2018-11-01T09:53:22.181Z,995.96
2018-11-01T09:54:22.178Z,996.01
2018-11-01T09:55:22.206Z,996.04
2018-11-01T09:56:22.259Z,996.03
2018-11-01T09:57:22.169Z,996.10
2018-11-01T09:58:22.137Z,996.09
2018-11-01T09:59:22.125Z,996.12
2018-11-01T10:00:22.115Z,996.10
2018-11-01T10:01:22.099Z,996.11
2018-11-01T10:02:22.104Z,996.09
2018-11-01T10:03:22.082Z,996.08
2018-11-01T10:04:22.090Z,996.08
2018-11-01T10:05:22.055Z,996.07
2018-11-01T10:06:22.050Z,996.08
2018-11-01T10:07:22.054Z,996.09
2018-11-01T10:08:22.031Z,996.16
2018-11-01T10:09:22.023Z,996.12
2018-11-01T10:10:22.036Z,996.16
2018-11-01T10:11:21.993Z,996.21
2018-11-01T10:12:22.023Z,996.14
2018-11-01T10:13:21.967Z,996.14
2018-11-01T10:14:21.969Z,996.12
2018-11-01T10:15:22.178Z,996.08
2018-11-01T10:16:22.150Z,996.05
2018-11-01T10:17:22.290Z,996.03
2018-11-01T10:18:22.356Z,996.02
2018-11-01T10:19:21.925Z,995.99
2018-11-01T10:20:21.925Z,996.00
2018-11-01T10:21:22.053Z,995.90
2018-11-01T10:22:21.951Z,995.90
2018-11-01T10:23:21.904Z,995.86
2018-11-01T10:24:21.863Z,995.82
2018-11-01T10:25:21.945Z,995.75
2018-11-01T10:26:21.848Z,995.71
2018-11-01T10:27:21.825Z,995.71
2018-11-01T10:28:21.822Z,995.70
2018-11-01T10:29:21.828Z,995.73
2018-11-01T10:30:21.789Z,995.65
2018-11-01T10:31:21.776Z,995.68
2018-11-01T10:32:21.767Z,995.64
2018-11-01T10:33:21.764Z,995.62
2018-11-01T10:34:21.752Z,995.61
2018-11-01T10:35:21.741Z,995.60
2018-11-01T10:36:21.726Z,995.63
2018-11-01T10:37:21.728Z,995.63
2018-11-01T10:38:21.722Z,995.67
2018-11-01T10:39:21.739Z,995.65
2018-11-01T10:40:21.683Z,995.66
2018-11-01T10:41:21.680Z,995.67
2018-11-01T10:42:21.678Z,995.69
2018-11-01T10:43:21.654Z,995.64
2018-11-01T10:44:21.637Z,995.62
2018-11-01T10:45:21.643Z,995.54
2018-11-01T10:46:21.629Z,995.41
2018-11-01T10:47:21.631Z,995.35
2018-11-01T10:48:21.600Z,995.27
2018-11-01T10:49:21.606Z,995.23
2018-11-01T10:50:21.607Z,995.20
2018-11-01T10:51:21.565Z,995.15
2018-11-01T10:52:21.573Z,995.14
2018-11-01T10:53:21.551Z,995.19
2018-11-01T10:54:21.656Z,995.21
2018-11-01T10:55:21.520Z,995.22
2018-11-01T10:56:21.528Z,995.20
2018-11-01T10:57:21.497Z,995.17
2018-11-01T10:58:21.552Z,995.10
2018-11-01T10:59:21.489Z,995.12
2018-11-01T11:00:21.678Z,995.10
2018-11-01T11:01:21.464Z,995.15
2018-11-01T11:02:21.445Z,995.09
2018-11-01T11:03:21.434Z,995.14
2018-11-01T11:04:21.434Z,995.20
2018-11-01T11:05:21.435Z,995.13
2018-11-01T11:06:21.422Z,995.11
2018-11-01T11:07:21.394Z,995.13
2018-11-01T11:08:21.381Z,995.16
2018-11-01T11:09:21.369Z,995.17
2018-11-01T11:10:21.377Z,995.19
2018-11-01T11:11:21.377Z,995.21
2018-11-01T11:12:21.342Z,995.24
2018-11-01T11:13:21.333Z,995.29
2018-11-01T11:14:21.381Z,995.25
2018-11-01T11:15:21.317Z,995.25
2018-11-01T11:16:21.298Z,995.27
2018-11-01T11:17:21.294Z,995.30
2018-11-01T11:18:21.284Z,995.26
2018-11-01T11:19:21.284Z,995.25
2018-11-01T11:20:21.388Z,995.25
2018-11-01T11:21:21.346Z,995.28
2018-11-01T11:22:21.228Z,995.29
2018-11-01T11:23:21.229Z,995.29
2018-11-01T11:24:21.215Z,995.42
2018-11-01T11:25:21.267Z,995.44
2018-11-01T11:26:21.204Z,995.46
2018-11-01T11:27:21.183Z,995.49
2018-11-01T11:28:21.172Z,995.53
2018-11-01T11:29:21.157Z,995.55
2018-11-01T11:30:21.375Z,995.56
2018-11-01T11:31:21.141Z,995.63
2018-11-01T11:32:21.191Z,995.67
2018-11-01T11:33:21.137Z,995.66
2018-11-01T11:34:21.106Z,995.71
2018-11-01T11:35:21.179Z,995.69
2018-11-01T11:36:21.082Z,995.72
2018-11-01T11:37:21.073Z,995.74
2018-11-01T11:38:21.102Z,995.73
2018-11-01T11:39:21.078Z,995.75
2018-11-01T11:40:21.075Z,995.70
2018-11-01T11:41:21.028Z,995.73
2018-11-01T11:42:21.031Z,995.68
2018-11-01T11:43:21.013Z,995.74
2018-11-01T11:44:21.020Z,995.72
2018-11-01T11:45:20.998Z,995.67
2018-11-01T11:46:20.976Z,995.63
2018-11-01T11:47:20.984Z,995.68
2018-11-01T11:48:20.976Z,995.64
2018-11-01T11:49:20.942Z,995.65
2018-11-01T11:50:20.956Z,995.65
2018-11-01T11:51:20.963Z,995.72
2018-11-01T11:52:20.919Z,995.70
2018-11-01T11:53:20.906Z,995.68
2018-11-01T11:54:20.888Z,995.64
2018-11-01T11:55:20.881Z,995.65
2018-11-01T11:56:20.890Z,995.67
2018-11-01T11:57:20.878Z,995.62
2018-11-01T11:58:20.845Z,995.62
2018-11-01T11:59:20.877Z,995.59
2018-11-01T12:00:20.827Z,995.53
2018-11-01T12:01:20.852Z,995.47
2018-11-01T12:02:20.830Z,995.47
2018-11-01T12:03:20.814Z,995.47
2018-11-01T12:04:20.797Z,995.45
2018-11-01T12:05:20.844Z,995.41
2018-11-01T12:06:20.886Z,995.41
2018-11-01T12:07:20.768Z,995.35
2018-11-01T12:08:20.751Z,995.36
2018-11-01T12:09:20.739Z,995.33
2018-11-01T12:10:20.724Z,995.24
2018-11-01T12:11:20.732Z,995.15
2018-11-01T12:12:20.700Z,995.13
2018-11-01T12:13:20.689Z,995.10
2018-11-01T12:14:20.865Z,995.07
2018-11-01T12:15:20.673Z,995.12
2018-11-01T12:16:20.692Z,995.08
2018-11-01T12:17:20.711Z,995.12
2018-11-01T12:18:20.646Z,995.07
2018-11-01T12:19:20.623Z,995.06
2018-11-01T12:20:20.628Z,995.12
2018-11-01T12:21:20.612Z,995.06
2018-11-01T12:22:20.627Z,995.01
2018-11-01T12:23:20.766Z,995.03
2018-11-01T12:24:20.598Z,995.02
2018-11-01T12:25:20.601Z,994.97
2018-11-01T12:26:20.549Z,995.03
2018-11-01T12:27:20.548Z,995.01
2018-11-01T12:28:20.547Z,995.03